CPX769 Details

Departure: Liège Airport (EBLG)
Arrival: Indira Gandhi International Airport (VIDP)
Route: LNO MTR Z719 OSBIT UZ205 LULAR Z205 ABUDO NARKA Z650 TOMET L624 ADINA L851 ERZ W71 MUS OTKEP UM688 PEBAD UP975 SESRA M677 ITBUL M677 LOVEM M677 KURTU P321 NOLSU P307 VAXIM RASKI L639 AAE Q3 BUBNU Q1 DIPAS DIPAS5D


Current Weather Information
EBLG 260150Z 20007KT CAVOK 08/06 Q1010 NOSIG
VIDP 260130Z 22002KT 1500 R28/P2000 R29/P2000 HZ NSC 28/15 Q1009 NOSIG